sensor_id;sensor_type;location;lat;lon;timestamp;pressure;altitude;pressure_sealevel;temperature;humidity
74270;BME280;62754;48.252;11.654;2023-05-20T00:01:53;96159.16;;;11.67;86.38
74270;BME280;62754;48.252;11.654;2023-05-20T00:04:21;96157.53;;;11.66;86.58
74270;BME280;62754;48.252;11.654;2023-05-20T00:06:49;96147.88;;;11.68;86.02
74270;BME280;62754;48.252;11.654;2023-05-20T00:09:17;96154.50;;;11.61;86.86
74270;BME280;62754;48.252;11.654;2023-05-20T00:11:45;96142.28;;;11.63;86.80
74270;BME280;62754;48.252;11.654;2023-05-20T00:14:11;96139.69;;;11.63;86.68
74270;BME280;62754;48.252;11.654;2023-05-20T00:16:37;96145.28;;;11.58;86.97
74270;BME280;62754;48.252;11.654;2023-05-20T00:19:02;96143.63;;;11.57;86.99
74270;BME280;62754;48.252;11.654;2023-05-20T00:21:33;96143.63;;;11.57;87.21
74270;BME280;62754;48.252;11.654;2023-05-20T00:24:03;96147.66;;;11.50;87.72
74270;BME280;62754;48.252;11.654;2023-05-20T00:26:31;96147.91;;;11.47;87.88
74270;BME280;62754;48.252;11.654;2023-05-20T00:28:57;96144.81;;;11.53;87.45
74270;BME280;62754;48.252;11.654;2023-05-20T00:31:25;96146.84;;;11.50;87.35
74270;BME280;62754;48.252;11.654;2023-05-20T00:33:53;96145.66;;;11.54;87.50
74270;BME280;62754;48.252;11.654;2023-05-20T00:36:23;96148.97;;;11.44;87.73
74270;BME280;62754;48.252;11.654;2023-05-20T00:38:54;96143.25;;;11.41;88.34
74270;BME280;62754;48.252;11.654;2023-05-20T00:41:19;96142.69;;;11.37;88.56
74270;BME280;62754;48.252;11.654;2023-05-20T00:43:45;96144.81;;;11.32;89.36
74270;BME280;62754;48.252;11.654;2023-05-20T00:46:14;96153.81;;;11.38;88.48
74270;BME280;62754;48.252;11.654;2023-05-20T00:48:41;96148.78;;;11.36;88.64
74270;BME280;62754;48.252;11.654;2023-05-20T00:51:12;96148.72;;;11.27;89.20
74270;BME280;62754;48.252;11.654;2023-05-20T00:53:41;96146.97;;;11.27;89.48
74270;BME280;62754;48.252;11.654;2023-05-20T00:56:10;96142.19;;;11.23;89.51
74270;BME280;62754;48.252;11.654;2023-05-20T00:58:39;96140.09;;;11.17;89.81
74270;BME280;62754;48.252;11.654;2023-05-20T01:01:07;96150.56;;;11.15;90.03
74270;BME280;62754;48.252;11.654;2023-05-20T01:03:35;96145.75;;;11.11;90.46
74270;BME280;62754;48.252;11.654;2023-05-20T01:06:01;96146.69;;;11.10;90.23
74270;BME280;62754;48.252;11.654;2023-05-20T01:08:27;96145.88;;;11.09;90.16
74270;BME280;62754;48.252;11.654;2023-05-20T01:11:02;96140.03;;;11.07;90.37
74270;BME280;62754;48.252;11.654;2023-05-20T01:13:42;96137.72;;;11.04;90.72
74270;BME280;62754;48.252;11.654;2023-05-20T01:16:10;96138.34;;;10.96;91.01
74270;BME280;62754;48.252;11.654;2023-05-20T01:18:40;96133.66;;;10.90;91.45
74270;BME280;62754;48.252;11.654;2023-05-20T01:21:11;96133.09;;;10.87;91.72
74270;BME280;62754;48.252;11.654;2023-05-20T01:23:39;96130.75;;;10.84;92.02
74270;BME280;62754;48.252;11.654;2023-05-20T01:26:13;96128.63;;;10.89;92.28
74270;BME280;62754;48.252;11.654;2023-05-20T01:28:40;96132.38;;;10.96;92.12
74270;BME280;62754;48.252;11.654;2023-05-20T01:31:17;96126.75;;;10.91;92.56
74270;BME280;62754;48.252;11.654;2023-05-20T01:33:49;96130.22;;;11.01;91.75
74270;BME280;62754;48.252;11.654;2023-05-20T01:36:17;96129.16;;;11.04;91.22
74270;BME280;62754;48.252;11.654;2023-05-20T01:38:43;96130.72;;;10.95;91.97
74270;BME280;62754;48.252;11.654;2023-05-20T01:41:11;96127.88;;;10.98;92.01
74270;BME280;62754;48.252;11.654;2023-05-20T01:43:38;96133.50;;;11.03;91.88
74270;BME280;62754;48.252;11.654;2023-05-20T01:46:05;96129.00;;;11.05;92.41
74270;BME280;62754;48.252;11.654;2023-05-20T01:48:31;96124.69;;;11.06;92.17
74270;BME280;62754;48.252;11.654;2023-05-20T01:51:00;96127.72;;;11.11;92.07
74270;BME280;62754;48.252;11.654;2023-05-20T01:53:25;96121.16;;;11.07;92.05
74270;BME280;62754;48.252;11.654;2023-05-20T01:55:51;96113.44;;;11.07;92.19
74270;BME280;62754;48.252;11.654;2023-05-20T01:58:20;96106.38;;;11.09;92.01
74270;BME280;62754;48.252;11.654;2023-05-20T02:00:48;96105.06;;;11.14;91.84
74270;BME280;62754;48.252;11.654;2023-05-20T02:03:14;96103.81;;;11.09;91.88
74270;BME280;62754;48.252;11.654;2023-05-20T02:05:42;96106.25;;;11.10;91.79
74270;BME280;62754;48.252;11.654;2023-05-20T02:08:13;96107.13;;;11.20;91.56
74270;BME280;62754;48.252;11.654;2023-05-20T02:10:39;96106.94;;;11.12;91.99
74270;BME280;62754;48.252;11.654;2023-05-20T02:13:05;96111.41;;;11.10;92.02
74270;BME280;62754;48.252;11.654;2023-05-20T02:15:31;96106.63;;;11.06;92.82
74270;BME280;62754;48.252;11.654;2023-05-20T02:17:58;96104.06;;;11.06;92.73
74270;BME280;62754;48.252;11.654;2023-05-20T02:20:26;96103.75;;;10.99;92.51
74270;BME280;62754;48.252;11.654;2023-05-20T02:22:52;96098.84;;;10.96;93.01
74270;BME280;62754;48.252;11.654;2023-05-20T02:25:18;96106.94;;;10.91;92.91
74270;BME280;62754;48.252;11.654;2023-05-20T02:27:48;96104.94;;;10.95;92.59
74270;BME280;62754;48.252;11.654;2023-05-20T02:30:14;96103.75;;;10.99;92.94
74270;BME280;62754;48.252;11.654;2023-05-20T02:32:44;96106.81;;;10.93;92.87
74270;BME280;62754;48.252;11.654;2023-05-20T02:35:10;96109.91;;;10.87;93.20
74270;BME280;62754;48.252;11.654;2023-05-20T02:37:38;96115.66;;;10.79;93.26
74270;BME280;62754;48.252;11.654;2023-05-20T02:40:08;96110.50;;;10.79;93.18
74270;BME280;62754;48.252;11.654;2023-05-20T02:42:33;96116.69;;;10.88;93.20
74270;BME280;62754;48.252;11.654;2023-05-20T02:45:01;96112.00;;;10.82;93.05
74270;BME280;62754;48.252;11.654;2023-05-20T02:47:30;96110.50;;;10.79;93.39
74270;BME280;62754;48.252;11.654;2023-05-20T02:49:58;96111.25;;;10.70;93.47
74270;BME280;62754;48.252;11.654;2023-05-20T02:52:26;96114.44;;;10.63;94.07
74270;BME280;62754;48.252;11.654;2023-05-20T02:54:54;96115.97;;;10.65;94.18
74270;BME280;62754;48.252;11.654;2023-05-20T02:57:22;96115.53;;;10.49;94.56
74270;BME280;62754;48.252;11.654;2023-05-20T02:59:50;96110.25;;;10.50;94.70
74270;BME280;62754;48.252;11.654;2023-05-20T03:02:15;96115.53;;;10.49;94.62
74270;BME280;62754;48.252;11.654;2023-05-20T03:04:43;96121.75;;;10.35;95.31
74270;BME280;62754;48.252;11.654;2023-05-20T03:07:09;96108.53;;;10.40;95.25
74270;BME280;62754;48.252;11.654;2023-05-20T03:09:37;96110.28;;;10.39;95.27
74270;BME280;62754;48.252;11.654;2023-05-20T03:12:03;96108.22;;;10.33;95.89
74270;BME280;62754;48.252;11.654;2023-05-20T03:14:31;96101.63;;;10.40;95.74
74270;BME280;62754;48.252;11.654;2023-05-20T03:16:57;96105.03;;;10.41;95.48
74270;BME280;62754;48.252;11.654;2023-05-20T03:19:22;96105.63;;;10.33;96.10
74270;BME280;62754;48.252;11.654;2023-05-20T03:21:48;96115.69;;;10.36;95.63
74270;BME280;62754;48.252;11.654;2023-05-20T03:24:16;96122.16;;;10.31;95.78
74270;BME280;62754;48.252;11.654;2023-05-20T03:26:44;96115.47;;;10.28;96.31
74270;BME280;62754;48.252;11.654;2023-05-20T03:29:10;96129.06;;;10.30;96.20
74270;BME280;62754;48.252;11.654;2023-05-20T03:31:38;96123.34;;;10.27;95.86
74270;BME280;62754;48.252;11.654;2023-05-20T03:34:06;96123.44;;;10.25;96.33
74270;BME280;62754;48.252;11.654;2023-05-20T03:36:32;96117.59;;;10.23;96.64
74270;BME280;62754;48.252;11.654;2023-05-20T03:38:58;96119.78;;;10.28;96.62
74270;BME280;62754;48.252;11.654;2023-05-20T03:41:26;96125.41;;;10.33;96.30
74270;BME280;62754;48.252;11.654;2023-05-20T03:43:51;96121.75;;;10.35;96.39
74270;BME280;62754;48.252;11.654;2023-05-20T03:46:17;96114.75;;;10.37;96.37
74270;BME280;62754;48.252;11.654;2023-05-20T03:48:43;96115.56;;;10.38;96.35
74270;BME280;62754;48.252;11.654;2023-05-20T03:51:08;96126.91;;;10.35;96.63
74270;BME280;62754;48.252;11.654;2023-05-20T03:53:37;96135.00;;;10.42;96.42
74270;BME280;62754;48.252;11.654;2023-05-20T03:56:08;96127.84;;;10.45;96.01
74270;BME280;62754;48.252;11.654;2023-05-20T03:58:34;96127.03;;;10.45;96.19
74270;BME280;62754;48.252;11.654;2023-05-20T04:00:59;96122.94;;;10.42;96.20
74270;BME280;62754;48.252;11.654;2023-05-20T04:03:25;96131.47;;;10.43;96.07
74270;BME280;62754;48.252;11.654;2023-05-20T04:05:53;96124.81;;;10.40;96.50
74270;BME280;62754;48.252;11.654;2023-05-20T04:08:19;96128.22;;;10.41;96.15
74270;BME280;62754;48.252;11.654;2023-05-20T04:10:45;96124.13;;;10.38;96.40
74270;BME280;62754;48.252;11.654;2023-05-20T04:13:11;96127.03;;;10.45;96.25
74270;BME280;62754;48.252;11.654;2023-05-20T04:15:37;96117.97;;;10.50;96.25
74270;BME280;62754;48.252;11.654;2023-05-20T04:18:05;96126.44;;;10.41;96.09
74270;BME280;62754;48.252;11.654;2023-05-20T04:20:31;96124.81;;;10.40;96.24
74270;BME280;62754;48.252;11.654;2023-05-20T04:22:59;96121.06;;;10.44;96.32
74270;BME280;62754;48.252;11.654;2023-05-20T04:25:27;96122.47;;;10.37;96.32
74270;BME280;62754;48.252;11.654;2023-05-20T04:27:55;96122.22;;;10.40;96.35
74270;BME280;62754;48.252;11.654;2023-05-20T04:30:21;96116.72;;;10.45;96.30
74270;BME280;62754;48.252;11.654;2023-05-20T04:32:49;96119.06;;;10.48;95.94
74270;BME280;62754;48.252;11.654;2023-05-20T04:35:15;96106.66;;;10.42;96.48
74270;BME280;62754;48.252;11.654;2023-05-20T04:37:43;96119.88;;;10.48;95.97
74270;BME280;62754;48.252;11.654;2023-05-20T04:40:21;96108.38;;;10.52;95.81
74270;BME280;62754;48.252;11.654;2023-05-20T04:42:51;96106.88;;;10.50;96.09
74270;BME280;62754;48.252;11.654;2023-05-20T04:45:19;96107.19;;;10.57;96.30
74270;BME280;62754;48.252;11.654;2023-05-20T04:47:45;96097.75;;;10.46;96.26
74270;BME280;62754;48.252;11.654;2023-05-20T04:50:13;96103.69;;;10.58;96.26
74270;BME280;62754;48.252;11.654;2023-05-20T04:52:39;96102.25;;;10.65;96.45
74270;BME280;62754;48.252;11.654;2023-05-20T04:55:12;96109.00;;;10.77;95.62
74270;BME280;62754;48.252;11.654;2023-05-20T04:57:38;96116.69;;;10.88;95.35
74270;BME280;62754;48.252;11.654;2023-05-20T05:00:05;96113.97;;;10.89;95.06
74270;BME280;62754;48.252;11.654;2023-05-20T05:02:34;96116.13;;;10.84;95.92
74270;BME280;62754;48.252;11.654;2023-05-20T05:05:00;96099.06;;;10.93;95.87
74270;BME280;62754;48.252;11.654;2023-05-20T05:07:28;96105.34;;;11.11;94.57
74270;BME280;62754;48.252;11.654;2023-05-20T05:09:56;96113.75;;;11.13;94.05
74270;BME280;62754;48.252;11.654;2023-05-20T05:12:21;96110.78;;;11.18;94.14
74270;BME280;62754;48.252;11.654;2023-05-20T05:14:47;96108.78;;;11.21;94.13
74270;BME280;62754;48.252;11.654;2023-05-20T05:17:15;96108.41;;;11.26;93.69
74270;BME280;62754;48.252;11.654;2023-05-20T05:19:41;96115.25;;;11.36;93.68
74270;BME280;62754;48.252;11.654;2023-05-20T05:22:09;96112.56;;;11.38;93.30
74270;BME280;62754;48.252;11.654;2023-05-20T05:24:34;96109.34;;;11.45;92.56
74270;BME280;62754;48.252;11.654;2023-05-20T05:27:00;96103.44;;;11.34;92.59
74270;BME280;62754;48.252;11.654;2023-05-20T05:29:26;96108.00;;;11.51;93.01
74270;BME280;62754;48.252;11.654;2023-05-20T05:31:52;96108.00;;;11.51;92.25
74270;BME280;62754;48.252;11.654;2023-05-20T05:34:18;96099.88;;;11.56;91.69
74270;BME280;62754;48.252;11.654;2023-05-20T05:36:43;96100.69;;;11.56;91.42
74270;BME280;62754;48.252;11.654;2023-05-20T05:39:09;96099.88;;;11.76;91.28
74270;BME280;62754;48.252;11.654;2023-05-20T05:41:35;96099.16;;;11.74;90.67
74270;BME280;62754;48.252;11.654;2023-05-20T05:44:01;96101.81;;;11.84;90.55
74270;BME280;62754;48.252;11.654;2023-05-20T05:46:26;96097.75;;;11.91;90.31
74270;BME280;62754;48.252;11.654;2023-05-20T05:48:52;96096.06;;;12.11;89.55
74270;BME280;62754;48.252;11.654;2023-05-20T05:51:20;96105.72;;;12.18;89.20
74270;BME280;62754;48.252;11.654;2023-05-20T05:53:48;96105.59;;;12.20;88.01
74270;BME280;62754;48.252;11.654;2023-05-20T05:56:14;96098.94;;;12.36;87.22
74270;BME280;62754;48.252;11.654;2023-05-20T05:58:40;96099.72;;;12.18;87.61
74270;BME280;62754;48.252;11.654;2023-05-20T06:01:08;96099.50;;;12.30;87.39
74270;BME280;62754;48.252;11.654;2023-05-20T06:03:36;96098.91;;;12.17;87.03
74270;BME280;62754;48.252;11.654;2023-05-20T06:06:04;96102.19;;;12.19;86.74
74270;BME280;62754;48.252;11.654;2023-05-20T06:08:34;96097.13;;;12.08;87.17
74270;BME280;62754;48.252;11.654;2023-05-20T06:11:00;96109.91;;;12.10;88.13
74270;BME280;62754;48.252;11.654;2023-05-20T06:13:25;96114.78;;;12.03;87.87
74270;BME280;62754;48.252;11.654;2023-05-20T06:15:53;96114.41;;;12.08;87.74
74270;BME280;62754;48.252;11.654;2023-05-20T06:18:19;96108.97;;;12.20;87.64
74270;BME280;62754;48.252;11.654;2023-05-20T06:20:52;96101.53;;;12.27;87.12
74270;BME280;62754;48.252;11.654;2023-05-20T06:23:20;96103.59;;;12.43;85.75
74270;BME280;62754;48.252;11.654;2023-05-20T06:25:46;96099.53;;;12.59;85.27
74270;BME280;62754;48.252;11.654;2023-05-20T06:28:15;96110.28;;;12.83;85.86
74270;BME280;62754;48.252;11.654;2023-05-20T06:30:45;96106.63;;;12.76;83.95
74270;BME280;62754;48.252;11.654;2023-05-20T06:33:13;96104.34;;;13.12;82.98
74270;BME280;62754;48.252;11.654;2023-05-20T06:35:39;96108.63;;;13.40;81.97
74270;BME280;62754;48.252;11.654;2023-05-20T06:38:07;96107.09;;;13.57;81.20
74270;BME280;62754;48.252;11.654;2023-05-20T06:40:35;96111.72;;;13.63;81.10
74270;BME280;62754;48.252;11.654;2023-05-20T06:43:00;96107.09;;;13.57;80.88
74270;BME280;62754;48.252;11.654;2023-05-20T06:45:26;96110.09;;;13.52;80.14
74270;BME280;62754;48.252;11.654;2023-05-20T06:47:52;96106.78;;;13.69;80.10
74270;BME280;62754;48.252;11.654;2023-05-20T06:50:20;96099.97;;;13.68;80.76
74270;BME280;62754;48.252;11.654;2023-05-20T06:52:46;96098.56;;;13.83;78.72
74270;BME280;62754;48.252;11.654;2023-05-20T06:55:14;96092.88;;;14.07;78.50
74270;BME280;62754;48.252;11.654;2023-05-20T06:57:44;96092.84;;;14.17;78.24
74270;BME280;62754;48.252;11.654;2023-05-20T07:00:11;96076.47;;;14.61;76.86
74270;BME280;62754;48.252;11.654;2023-05-20T07:02:38;96072.66;;;14.38;76.11
74270;BME280;62754;48.252;11.654;2023-05-20T07:05:07;96068.31;;;14.74;76.50
74270;BME280;62754;48.252;11.654;2023-05-20T07:07:38;96075.03;;;14.49;76.40
74270;BME280;62754;48.252;11.654;2023-05-20T07:10:07;96081.19;;;14.48;76.74
74270;BME280;62754;48.252;11.654;2023-05-20T07:12:36;96080.00;;;14.60;76.02
74270;BME280;62754;48.252;11.654;2023-05-20T07:15:01;96073.50;;;14.56;77.26
74270;BME280;62754;48.252;11.654;2023-05-20T07:17:30;96070.84;;;14.66;76.55
74270;BME280;62754;48.252;11.654;2023-05-20T07:19:58;96077.94;;;14.46;75.51
74270;BME280;62754;48.252;11.654;2023-05-20T07:22:26;96075.59;;;14.70;74.98
74270;BME280;62754;48.252;11.654;2023-05-20T07:24:54;96063.44;;;14.71;75.09
74270;BME280;62754;48.252;11.654;2023-05-20T07:27:20;96063.91;;;15.10;74.45
74270;BME280;62754;48.252;11.654;2023-05-20T07:29:46;96063.25;;;15.34;73.75
74270;BME280;62754;48.252;11.654;2023-05-20T07:32:14;96064.31;;;15.49;72.42
74270;BME280;62754;48.252;11.654;2023-05-20T07:34:42;96058.78;;;15.69;72.84
74270;BME280;62754;48.252;11.654;2023-05-20T07:37:08;96069.13;;;15.95;73.27
74270;BME280;62754;48.252;11.654;2023-05-20T07:39:36;96062.22;;;16.12;70.50
74270;BME280;62754;48.252;11.654;2023-05-20T07:42:02;96055.97;;;16.47;70.81
74270;BME280;62754;48.252;11.654;2023-05-20T07:44:27;96060.94;;;16.90;70.24
74270;BME280;62754;48.252;11.654;2023-05-20T07:46:54;96063.69;;;16.73;67.87
74270;BME280;62754;48.252;11.654;2023-05-20T07:49:24;96060.28;;;16.96;69.52
74270;BME280;62754;48.252;11.654;2023-05-20T07:51:52;96056.22;;;17.10;67.88
74270;BME280;62754;48.252;11.654;2023-05-20T07:54:18;96054.75;;;16.99;66.54
74270;BME280;62754;48.252;11.654;2023-05-20T07:56:44;96066.28;;;16.56;67.85
74270;BME280;62754;48.252;11.654;2023-05-20T07:59:12;96059.06;;;16.42;67.15
74270;BME280;62754;48.252;11.654;2023-05-20T08:01:40;96058.16;;;16.59;67.70
74270;BME280;62754;48.252;11.654;2023-05-20T08:04:06;96065.34;;;16.82;68.81
74270;BME280;62754;48.252;11.654;2023-05-20T08:06:32;96061.59;;;17.00;65.82
74270;BME280;62754;48.252;11.654;2023-05-20T08:08:57;96058.16;;;17.00;67.11
74270;BME280;62754;48.252;11.654;2023-05-20T08:11:23;96050.06;;;16.95;65.97
74270;BME280;62754;48.252;11.654;2023-05-20T08:13:51;96052.28;;;17.30;64.63
74270;BME280;62754;48.252;11.654;2023-05-20T08:16:17;96047.53;;;17.66;63.07
74270;BME280;62754;48.252;11.654;2023-05-20T08:18:43;96040.38;;;17.68;63.23
74270;BME280;62754;48.252;11.654;2023-05-20T08:21:11;96037.19;;;17.89;61.74
74270;BME280;62754;48.252;11.654;2023-05-20T08:23:39;96040.03;;;18.10;62.73
74270;BME280;62754;48.252;11.654;2023-05-20T08:26:07;96033.13;;;18.79;62.77
74270;BME280;62754;48.252;11.654;2023-05-20T08:28:32;96029.19;;;18.83;61.49
74270;BME280;62754;48.252;11.654;2023-05-20T08:31:00;96025.13;;;18.80;60.80
74270;BME280;62754;48.252;11.654;2023-05-20T08:33:26;96029.56;;;18.18;61.88
74270;BME280;62754;48.252;11.654;2023-05-20T08:35:51;96032.94;;;18.27;61.75
74270;BME280;62754;48.252;11.654;2023-05-20T08:38:20;96028.56;;;18.50;60.27
74270;BME280;62754;48.252;11.654;2023-05-20T08:40:51;96033.47;;;18.53;62.80
74270;BME280;62754;48.252;11.654;2023-05-20T08:43:20;96038.88;;;18.74;61.13
74270;BME280;62754;48.252;11.654;2023-05-20T08:45:49;96031.09;;;18.89;61.27
74270;BME280;62754;48.252;11.654;2023-05-20T08:48:17;96031.38;;;18.94;61.09
74270;BME280;62754;48.252;11.654;2023-05-20T08:50:48;96029.59;;;18.94;60.16
74270;BME280;62754;48.252;11.654;2023-05-20T08:53:16;96032.44;;;19.22;57.22
74270;BME280;62754;48.252;11.654;2023-05-20T08:55:45;96034.16;;;19.30;58.36
74270;BME280;62754;48.252;11.654;2023-05-20T08:58:14;96027.44;;;18.98;57.05
74270;BME280;62754;48.252;11.654;2023-05-20T09:00:42;96028.00;;;18.85;59.96
74270;BME280;62754;48.252;11.654;2023-05-20T09:03:10;96025.03;;;18.88;61.48
74270;BME280;62754;48.252;11.654;2023-05-20T09:05:39;96022.31;;;19.04;60.47
74270;BME280;62754;48.252;11.654;2023-05-20T09:08:13;96025.03;;;19.11;59.02
74270;BME280;62754;48.252;11.654;2023-05-20T09:10:42;96021.78;;;19.76;58.99
74270;BME280;62754;48.252;11.654;2023-05-20T09:13:09;96018.19;;;19.91;57.96
74270;BME280;62754;48.252;11.654;2023-05-20T09:15:42;96016.44;;;19.98;58.27
74270;BME280;62754;48.252;11.654;2023-05-20T09:18:10;96021.16;;;19.88;60.21
74270;BME280;62754;48.252;11.654;2023-05-20T09:20:36;96021.91;;;20.33;59.50
74270;BME280;62754;48.252;11.654;2023-05-20T09:23:06;96023.75;;;20.54;55.56
74270;BME280;62754;48.252;11.654;2023-05-20T09:25:35;96024.44;;;20.62;53.66
74270;BME280;62754;48.252;11.654;2023-05-20T09:28:03;96019.81;;;21.07;56.78
74270;BME280;62754;48.252;11.654;2023-05-20T09:30:32;96018.34;;;21.19;53.27
74270;BME280;62754;48.252;11.654;2023-05-20T09:33:02;96025.88;;;21.63;53.69
74270;BME280;62754;48.252;11.654;2023-05-20T09:35:33;96021.84;;;21.60;51.58
74270;BME280;62754;48.252;11.654;2023-05-20T09:37:59;96017.66;;;21.38;52.46
74270;BME280;62754;48.252;11.654;2023-05-20T09:40:26;96023.38;;;21.20;54.02
74270;BME280;62754;48.252;11.654;2023-05-20T09:43:06;96022.41;;;21.28;54.42
74270;BME280;62754;48.252;11.654;2023-05-20T09:45:34;96021.69;;;21.68;52.27
74270;BME280;62754;48.252;11.654;2023-05-20T09:48:01;96025.66;;;21.58;51.49
74270;BME280;62754;48.252;11.654;2023-05-20T09:50:29;96019.38;;;21.52;51.88
74270;BME280;62754;48.252;11.654;2023-05-20T09:52:56;96015.34;;;21.56;51.82
74270;BME280;62754;48.252;11.654;2023-05-20T09:55:28;96003.41;;;21.81;53.28
74270;BME280;62754;48.252;11.654;2023-05-20T09:57:55;96003.75;;;21.72;52.39
74270;BME280;62754;48.252;11.654;2023-05-20T10:00:21;96000.56;;;21.76;52.59
74270;BME280;62754;48.252;11.654;2023-05-20T10:02:51;95996.66;;;21.31;53.23
74270;BME280;62754;48.252;11.654;2023-05-20T10:05:22;96005.03;;;21.20;53.49
74270;BME280;62754;48.252;11.654;2023-05-20T10:10:43;96008.41;;;21.14;53.07
74270;BME280;62754;48.252;11.654;2023-05-20T10:18:52;95991.59;;;20.81;53.14
74270;BME280;62754;48.252;11.654;2023-05-20T10:21:23;95990.13;;;20.78;55.24
74270;BME280;62754;48.252;11.654;2023-05-20T10:23:50;95991.03;;;20.64;55.08
74270;BME280;62754;48.252;11.654;2023-05-20T10:26:18;95987.34;;;20.59;57.05
74270;BME280;62754;48.252;11.654;2023-05-20T10:28:47;95985.53;;;20.59;58.50
74270;BME280;62754;48.252;11.654;2023-05-20T10:31:16;95984.94;;;20.57;54.07
74270;BME280;62754;48.252;11.654;2023-05-20T10:33:44;95988.47;;;20.50;56.29
74270;BME280;62754;48.252;11.654;2023-05-20T10:36:29;95978.88;;;20.57;55.66
74270;BME280;62754;48.252;11.654;2023-05-20T10:38:57;95977.19;;;20.70;55.46
74270;BME280;62754;48.252;11.654;2023-05-20T10:41:26;95965.81;;;22.09;56.34
74270;BME280;62754;48.252;11.654;2023-05-20T10:46:33;95959.06;;;23.46;51.22
74270;BME280;62754;48.252;11.654;2023-05-20T10:49:00;95961.28;;;23.55;47.22
74270;BME280;62754;48.252;11.654;2023-05-20T10:51:30;95958.09;;;23.07;50.20
74270;BME280;62754;48.252;11.654;2023-05-20T10:53:56;95948.97;;;23.36;49.40
74270;BME280;62754;48.252;11.654;2023-05-20T10:56:24;95952.13;;;23.64;46.73
74270;BME280;62754;48.252;11.654;2023-05-20T10:58:53;95956.63;;;24.84;43.44
74270;BME280;62754;48.252;11.654;2023-05-20T11:01:24;95956.72;;;24.71;44.61
74270;BME280;62754;48.252;11.654;2023-05-20T11:03:55;95949.47;;;24.91;45.41
74270;BME280;62754;48.252;11.654;2023-05-20T11:06:26;95952.75;;;24.55;45.69
74270;BME280;62754;48.252;11.654;2023-05-20T11:08:51;95948.38;;;24.43;43.95
74270;BME280;62754;48.252;11.654;2023-05-20T11:11:20;95940.66;;;24.73;44.51
74270;BME280;62754;48.252;11.654;2023-05-20T11:13:49;95928.09;;;25.42;41.86
74270;BME280;62754;48.252;11.654;2023-05-20T11:16:22;95938.50;;;24.94;41.58
74270;BME280;62754;48.252;11.654;2023-05-20T11:18:49;95934.91;;;24.57;43.36
74270;BME280;62754;48.252;11.654;2023-05-20T11:21:17;95937.88;;;24.67;45.05
74270;BME280;62754;48.252;11.654;2023-05-20T11:23:45;95949.47;;;25.16;41.17
74270;BME280;62754;48.252;11.654;2023-05-20T11:26:16;95938.97;;;25.89;40.01
74270;BME280;62754;48.252;11.654;2023-05-20T11:28:44;95934.59;;;25.83;39.18
74270;BME280;62754;48.252;11.654;2023-05-20T11:31:10;95927.44;;;24.86;43.08
74270;BME280;62754;48.252;11.654;2023-05-20T11:33:40;95932.94;;;24.78;43.95
74270;BME280;62754;48.252;11.654;2023-05-20T11:36:08;95937.81;;;24.74;43.10
74270;BME280;62754;48.252;11.654;2023-05-20T11:38:39;95932.22;;;24.64;44.04
74270;BME280;62754;48.252;11.654;2023-05-20T11:41:07;95935.91;;;24.88;44.03
74270;BME280;62754;48.252;11.654;2023-05-20T11:43:35;95924.00;;;25.46;44.55
74270;BME280;62754;48.252;11.654;2023-05-20T11:46:03;95915.59;;;25.74;42.54
74270;BME280;62754;48.252;11.654;2023-05-20T11:48:29;95916.63;;;26.51;39.86
74270;BME280;62754;48.252;11.654;2023-05-20T11:50:58;95908.19;;;27.30;39.19
74270;BME280;62754;48.252;11.654;2023-05-20T11:53:26;95910.16;;;27.58;40.51
74270;BME280;62754;48.252;11.654;2023-05-20T11:55:55;95918.09;;;27.23;41.11
74270;BME280;62754;48.252;11.654;2023-05-20T11:58:28;95902.06;;;26.60;39.54
74270;BME280;62754;48.252;11.654;2023-05-20T12:00:57;95905.13;;;27.33;39.45
74270;BME280;62754;48.252;11.654;2023-05-20T12:03:23;95896.31;;;27.79;37.07
74270;BME280;62754;48.252;11.654;2023-05-20T12:05:49;95900.63;;;27.97;38.84
74270;BME280;62754;48.252;11.654;2023-05-20T12:08:15;95902.47;;;28.53;37.10
74270;BME280;62754;48.252;11.654;2023-05-20T12:10:42;95898.28;;;27.72;36.46
74270;BME280;62754;48.252;11.654;2023-05-20T12:13:10;95904.66;;;28.28;36.79
74270;BME280;62754;48.252;11.654;2023-05-20T12:15:37;95901.78;;;28.29;37.03
74270;BME280;62754;48.252;11.654;2023-05-20T12:18:03;95903.03;;;28.10;35.62
74270;BME280;62754;48.252;11.654;2023-05-20T12:20:31;95900.03;;;27.43;37.58
74270;BME280;62754;48.252;11.654;2023-05-20T12:23:02;95898.56;;;27.13;40.19
74270;BME280;62754;48.252;11.654;2023-05-20T12:25:28;95894.63;;;27.50;38.14
74270;BME280;62754;48.252;11.654;2023-05-20T12:27:54;95893.06;;;28.46;37.20
74270;BME280;62754;48.252;11.654;2023-05-20T12:30:21;95895.66;;;28.74;37.48
74270;BME280;62754;48.252;11.654;2023-05-20T12:32:48;95882.25;;;27.79;37.13
74270;BME280;62754;48.252;11.654;2023-05-20T12:35:14;95888.56;;;27.26;36.42
74270;BME280;62754;48.252;11.654;2023-05-20T12:37:43;95886.84;;;27.09;37.52
74270;BME280;62754;48.252;11.654;2023-05-20T12:40:10;95889.94;;;27.29;36.32
74270;BME280;62754;48.252;11.654;2023-05-20T12:42:37;95886.50;;;27.91;36.10
74270;BME280;62754;48.252;11.654;2023-05-20T12:45:03;95891.66;;;28.26;34.95
74270;BME280;62754;48.252;11.654;2023-05-20T12:47:32;95892.09;;;28.52;33.99
74270;BME280;62754;48.252;11.654;2023-05-20T12:50:04;95889.34;;;27.90;33.83
74270;BME280;62754;48.252;11.654;2023-05-20T12:52:29;95885.19;;;27.54;35.51
74270;BME280;62754;48.252;11.654;2023-05-20T12:54:57;95897.63;;;27.54;35.42
74270;BME280;62754;48.252;11.654;2023-05-20T12:57:30;95886.94;;;27.49;36.10
74270;BME280;62754;48.252;11.654;2023-05-20T12:59:58;95880.13;;;27.41;35.03
74270;BME280;62754;48.252;11.654;2023-05-20T13:02:26;95877.97;;;26.80;35.96
74270;BME280;62754;48.252;11.654;2023-05-20T13:04:52;95879.13;;;26.95;36.04